Time;durP1;ratioP1;P1;durP2;ratioP2;P2;SDS_P1;SDS_P2;PMS_P1;PMS_P2;Temp;Humidity;BMP_temperature;BMP_pressure;BME280_temperature;BME280_humidity;BME280_pressure;Samples;Min_cycle;Max_cycle;Signal;HPM_P1;HPM_P2
2020/12/11 00:02:07;;;;;;;9.90;4.20;;;3.60;93.50;;;;;;5032323;28;20116;-75
2020/12/11 00:04:32;;;;;;;13.80;5.30;;;3.60;93.60;;;;;;5033977;28;20025;-75
2020/12/11 00:06:59;;;;;;;13.57;4.82;;;3.60;93.60;;;;;;5033470;28;20386;-75
2020/12/11 00:09:25;;;;;;;11.18;5.45;;;3.50;93.90;;;;;;5032612;28;20028;-74
2020/12/11 00:11:51;;;;;;;10.55;4.32;;;3.50;93.70;;;;;;5033829;28;20033;-74
2020/12/11 00:14:20;;;;;;;13.88;5.60;;;3.50;93.70;;;;;;5031914;28;20027;-75
2020/12/11 00:16:46;;;;;;;11.50;4.40;;;3.50;93.70;;;;;;5033838;28;20021;-75
2020/12/11 00:19:12;;;;;;;14.48;4.85;;;3.50;93.70;;;;;;5033096;28;20465;-75
2020/12/11 00:21:41;;;;;;;12.85;5.32;;;3.50;93.70;;;;;;5033333;28;20108;-75
2020/12/11 00:24:08;;;;;;;13.73;4.78;;;3.50;93.60;;;;;;5031714;28;20032;-75
2020/12/11 00:26:33;;;;;;;15.13;5.15;;;3.50;93.60;;;;;;5032305;28;20033;-75
2020/12/11 00:28:59;;;;;;;14.73;5.45;;;3.50;93.60;;;;;;5033105;28;20025;-76
2020/12/11 00:31:25;;;;;;;16.92;6.03;;;3.60;93.60;;;;;;5032200;28;20124;-75
2020/12/11 00:33:52;;;;;;;14.18;5.60;;;3.60;93.60;;;;;;5033412;28;20454;-75
2020/12/11 00:36:18;;;;;;;15.55;5.00;;;3.60;93.50;;;;;;5032834;28;20034;-74
2020/12/11 00:38:44;;;;;;;18.08;5.78;;;3.60;93.50;;;;;;5032200;28;20022;-75
2020/12/11 00:41:10;;;;;;;17.80;6.35;;;3.60;93.50;;;;;;5031595;28;20424;-74
2020/12/11 00:43:36;;;;;;;15.52;5.15;;;3.60;93.50;;;;;;5032011;28;20030;-75
2020/12/11 00:46:01;;;;;;;10.27;4.88;;;3.70;93.50;;;;;;5032582;28;20498;-75
2020/12/11 00:48:27;;;;;;;8.25;3.97;;;3.60;93.50;;;;;;5031383;28;20381;-75
2020/12/11 00:50:53;;;;;;;15.98;5.63;;;3.70;93.50;;;;;;5033089;28;20030;-74
2020/12/11 00:53:18;;;;;;;15.13;5.25;;;3.70;93.50;;;;;;5032583;28;20368;-75
2020/12/11 00:55:44;;;;;;;9.25;3.88;;;3.70;93.50;;;;;;5033069;28;20135;-75
2020/12/11 00:58:10;;;;;;;16.05;4.10;;;3.70;93.50;;;;;;5032562;28;20017;-74
2020/12/11 01:00:35;;;;;;;11.73;5.20;;;3.70;93.50;;;;;;5032867;28;20021;-75
2020/12/11 01:03:02;;;;;;;10.95;4.30;;;3.70;93.50;;;;;;5032217;28;20045;-75
2020/12/11 01:05:28;;;;;;;14.68;4.47;;;3.70;93.50;;;;;;5031208;28;20041;-75
2020/12/11 01:07:53;;;;;;;16.13;5.53;;;3.70;93.50;;;;;;5031559;28;20151;-74
2020/12/11 01:10:19;;;;;;;15.52;5.95;;;3.70;93.50;;;;;;5032143;28;20461;-75
2020/12/11 01:12:44;;;;;;;10.38;4.78;;;3.70;93.50;;;;;;5032818;28;20018;-75
2020/12/11 01:15:10;;;;;;;18.10;6.00;;;3.70;93.40;;;;;;5032295;28;20100;-75
2020/12/11 01:17:36;;;;;;;12.88;5.10;;;3.70;93.50;;;;;;5032774;28;20021;-74
2020/12/11 01:20:02;;;;;;;19.75;5.82;;;3.70;93.40;;;;;;5032253;28;20033;-75
2020/12/11 01:22:27;;;;;;;13.45;5.53;;;3.70;93.40;;;;;;5032531;28;20078;-75
2020/12/11 01:24:53;;;;;;;19.02;5.80;;;3.70;93.40;;;;;;5032538;28;20021;-75
2020/12/11 01:27:19;;;;;;;16.40;5.68;;;3.70;93.40;;;;;;5032321;28;20081;-74
2020/12/11 01:29:44;;;;;;;16.80;5.68;;;3.70;93.40;;;;;;5032515;28;20022;-75
2020/12/11 01:32:10;;;;;;;14.25;5.82;;;3.70;93.40;;;;;;5032128;28;20072;-75
2020/12/11 01:34:35;;;;;;;13.98;5.30;;;3.70;93.40;;;;;;5032617;28;20025;-75
2020/12/11 01:37:03;;;;;;;13.48;5.47;;;3.70;93.40;;;;;;5032057;28;20029;-75
2020/12/11 01:39:29;;;;;;;14.38;5.10;;;3.70;93.40;;;;;;5032552;28;20101;-74
2020/12/11 01:41:55;;;;;;;11.80;4.45;;;3.70;93.40;;;;;;5032639;28;20025;-74
2020/12/11 01:44:20;;;;;;;12.18;5.35;;;3.70;93.40;;;;;;5031596;28;20462;-75
2020/12/11 01:46:49;;;;;;;13.95;5.28;;;3.70;93.40;;;;;;5031077;28;20049;-75
2020/12/11 01:49:14;;;;;;;14.02;4.85;;;3.70;93.50;;;;;;5032303;28;20028;-75
2020/12/11 01:51:40;;;;;;;14.02;5.30;;;3.70;93.50;;;;;;5032400;28;20030;-74
2020/12/11 01:54:06;;;;;;;14.40;5.05;;;3.70;93.50;;;;;;5031975;28;20022;-75
2020/12/11 01:56:49;;;;;;;15.55;6.30;;;3.70;93.50;;;;;;5032502;28;20025;-75
2020/12/11 01:59:22;;;;;;;14.07;4.47;;;3.70;93.50;;;;;;5034497;28;20029;-75
2020/12/11 02:01:49;;;;;;;11.93;5.20;;;3.60;93.50;;;;;;5035046;28;20022;-75
2020/12/11 02:04:15;;;;;;;9.82;4.00;;;3.60;93.60;;;;;;5035927;28;20056;-75
2020/12/11 02:06:42;;;;;;;11.55;5.05;;;3.60;93.60;;;;;;5034422;28;20080;-75
2020/12/11 02:09:07;;;;;;;12.05;4.57;;;3.50;93.60;;;;;;5035781;28;20057;-75
2020/12/11 02:11:33;;;;;;;14.10;4.40;;;3.60;93.70;;;;;;5036079;28;20065;-74
2020/12/11 02:13:59;;;;;;;16.40;5.60;;;3.50;93.70;;;;;;5034747;28;20018;-75
2020/12/11 02:16:25;;;;;;;15.82;4.90;;;3.50;93.70;;;;;;5034266;28;20060;-75
2020/12/11 02:18:50;;;;;;;14.82;5.35;;;3.60;93.70;;;;;;5034119;28;20025;-75
2020/12/11 02:21:16;;;;;;;14.43;5.22;;;3.60;93.70;;;;;;5033847;28;20124;-75
2020/12/11 02:23:45;;;;;;;9.43;4.07;;;3.60;93.70;;;;;;5035909;28;20053;-75
2020/12/11 02:26:12;;;;;;;12.75;5.03;;;3.60;93.70;;;;;;5035485;28;20033;-75
2020/12/11 02:28:38;;;;;;;15.25;4.72;;;3.50;93.60;;;;;;5035865;28;20033;-75
2020/12/11 02:31:04;;;;;;;17.20;5.18;;;3.50;93.70;;;;;;5035400;28;20025;-76
2020/12/11 02:33:30;;;;;;;19.90;5.82;;;3.50;93.70;;;;;;5034468;28;20033;-75
2020/12/11 02:35:56;;;;;;;14.93;4.88;;;3.50;93.70;;;;;;5035276;28;20021;-75
2020/12/11 02:38:23;;;;;;;14.68;4.60;;;3.50;93.70;;;;;;5033770;28;20351;-75
2020/12/11 02:40:55;;;;;;;15.65;5.75;;;3.50;93.80;;;;;;5035672;28;20030;-75
2020/12/11 02:43:21;;;;;;;13.75;4.32;;;3.50;93.80;;;;;;5035213;28;20025;-75
2020/12/11 02:45:49;;;;;;;17.58;5.72;;;3.40;93.70;;;;;;5035423;28;20037;-75
2020/12/11 02:48:15;;;;;;;13.90;5.35;;;3.40;93.70;;;;;;5034979;28;20022;-75
2020/12/11 02:50:41;;;;;;;9.90;3.97;;;3.40;93.80;;;;;;5035303;28;20028;-75
2020/12/11 02:53:07;;;;;;;16.95;4.60;;;3.40;93.80;;;;;;5034695;28;20033;-75
2020/12/11 02:55:36;;;;;;;15.27;5.50;;;3.40;93.80;;;;;;5034967;28;20109;-74
2020/12/11 02:58:03;;;;;;;18.30;5.13;;;3.40;93.80;;;;;;5034995;28;20026;-74
2020/12/11 03:00:30;;;;;;;10.38;4.15;;;3.30;93.80;;;;;;5033910;28;20025;-75
2020/12/11 03:02:55;;;;;;;14.48;4.05;;;3.30;93.80;;;;;;5035014;28;20029;-75
2020/12/11 03:05:21;;;;;;;14.45;5.07;;;3.30;93.90;;;;;;5033171;28;20057;-75
2020/12/11 03:07:47;;;;;;;12.38;4.00;;;3.30;93.90;;;;;;5035525;28;20056;-74
2020/12/11 03:10:12;;;;;;;11.95;5.20;;;3.30;94.20;;;;;;5033925;28;20033;-74
2020/12/11 03:12:38;;;;;;;11.20;4.75;;;3.20;93.90;;;;;;5035347;28;20056;-75
2020/12/11 03:15:04;;;;;;;14.35;3.95;;;3.20;93.90;;;;;;5033713;28;20416;-75
2020/12/11 03:17:30;;;;;;;15.60;4.95;;;3.20;93.90;;;;;;5034686;28;20040;-75
2020/12/11 03:19:55;;;;;;;10.77;3.83;;;3.20;94.00;;;;;;5034802;28;20029;-75
2020/12/11 03:22:21;;;;;;;16.88;4.60;;;3.20;93.90;;;;;;5034380;28;20040;-75
2020/12/11 03:24:47;;;;;;;13.23;4.82;;;3.20;93.90;;;;;;5034476;28;20362;-75
2020/12/11 03:27:13;;;;;;;14.82;4.60;;;3.20;93.90;;;;;;5034284;28;20028;-75
2020/12/11 03:29:38;;;;;;;11.90;4.40;;;3.20;93.90;;;;;;5034712;28;20029;-75
2020/12/11 03:32:04;;;;;;;15.05;4.38;;;3.20;93.90;;;;;;5034760;28;20057;-74
2020/12/11 03:34:30;;;;;;;10.50;4.50;;;3.20;93.90;;;;;;5034530;28;20112;-74
2020/12/11 03:36:56;;;;;;;14.80;4.45;;;3.20;93.90;;;;;;5033515;28;20028;-75
2020/12/11 03:39:21;;;;;;;10.75;4.68;;;3.20;93.90;;;;;;5034341;28;20052;-75
2020/12/11 03:41:51;;;;;;;14.60;6.13;;;3.20;93.90;;;;;;5034078;28;20030;-75
2020/12/11 03:44:17;;;;;;;12.68;4.80;;;3.20;93.90;;;;;;5032754;28;20049;-75
2020/12/11 03:46:42;;;;;;;13.07;5.05;;;3.20;93.90;;;;;;5032981;28;20466;-74
2020/12/11 03:49:08;;;;;;;16.05;5.90;;;3.10;93.90;;;;;;5033835;28;20492;-75
2020/12/11 03:51:34;;;;;;;12.13;4.13;;;3.10;93.90;;;;;;5034286;28;20381;-75
2020/12/11 03:53:59;;;;;;;15.15;4.75;;;3.10;93.90;;;;;;5034017;28;20104;-75
2020/12/11 03:56:25;;;;;;;13.40;4.63;;;3.10;93.90;;;;;;5032451;28;20022;-75
2020/12/11 03:58:51;;;;;;;14.77;5.70;;;3.10;93.90;;;;;;5034097;28;20052;-75
2020/12/11 04:01:16;;;;;;;17.95;6.90;;;3.10;93.90;;;;;;5033204;28;20118;-75
2020/12/11 04:08:59;;;;;;;14.18;4.38;;;3.00;94.00;;;;;;4826032;23;20050;-80
2020/12/11 04:11:24;;;;;;;17.70;5.75;;;3.00;94.00;;;;;;4975680;28;20031;-79
2020/12/11 04:13:50;;;;;;;15.82;5.90;;;3.00;94.00;;;;;;4993978;28;20034;-79
2020/12/11 04:16:16;;;;;;;14.23;5.57;;;3.00;94.00;;;;;;4993104;28;20026;-79
2020/12/11 04:18:42;;;;;;;15.50;5.13;;;3.00;94.00;;;;;;4976325;28;20033;-79
2020/12/11 04:21:13;;;;;;;13.85;4.82;;;3.00;94.00;;;;;;4975001;28;20050;-79
2020/12/11 04:23:38;;;;;;;14.13;4.60;;;3.00;94.00;;;;;;4975158;28;20046;-80
2020/12/11 04:26:04;;;;;;;14.93;4.82;;;2.90;94.00;;;;;;4993445;28;20030;-78
2020/12/11 04:28:30;;;;;;;18.02;4.38;;;3.00;94.00;;;;;;4976062;28;20026;-79
2020/12/11 04:30:56;;;;;;;13.35;4.45;;;2.90;94.00;;;;;;4993471;28;20057;-79
2020/12/11 04:33:21;;;;;;;11.82;4.35;;;3.00;94.00;;;;;;4975427;28;20018;-78
2020/12/11 04:35:47;;;;;;;13.70;5.20;;;2.90;93.90;;;;;;4993403;28;20041;-79
2020/12/11 04:38:13;;;;;;;16.45;4.55;;;2.90;93.90;;;;;;4992766;28;20022;-79
2020/12/11 04:40:38;;;;;;;18.30;5.55;;;3.00;93.90;;;;;;4992889;28;20094;-78
2020/12/11 04:43:04;;;;;;;11.68;4.78;;;3.00;93.90;;;;;;4975387;28;20058;-80
2020/12/11 04:45:30;;;;;;;14.05;6.13;;;3.00;93.90;;;;;;4993185;28;20030;-79
2020/12/11 04:47:56;;;;;;;12.50;5.78;;;3.00;93.90;;;;;;4993593;28;20033;-79
2020/12/11 04:50:22;;;;;;;12.48;4.47;;;3.00;93.90;;;;;;4992396;28;20023;-79
2020/12/11 04:52:48;;;;;;;16.23;4.93;;;3.00;93.90;;;;;;4993071;28;20101;-79
2020/12/11 04:55:16;;;;;;;17.63;5.93;;;3.10;93.90;;;;;;4992392;28;20026;-79
2020/12/11 04:57:47;;;;;;;16.50;5.53;;;3.10;93.90;;;;;;4993011;28;20105;-79
2020/12/11 05:00:16;;;;;;;16.48;5.45;;;3.10;93.90;;;;;;4974858;28;20373;-79
2020/12/11 05:02:43;;;;;;;12.57;4.88;;;3.10;93.80;;;;;;4992539;28;20026;-79
2020/12/11 05:05:09;;;;;;;16.27;5.38;;;3.20;93.80;;;;;;4992283;28;20108;-79
2020/12/11 05:07:36;;;;;;;16.33;5.28;;;3.20;93.80;;;;;;4992974;28;20057;-79
2020/12/11 05:10:03;;;;;;;15.38;5.50;;;3.20;93.80;;;;;;4991384;28;20134;-78
2020/12/11 05:12:29;;;;;;;14.75;5.55;;;3.20;93.70;;;;;;4992133;28;20034;-79
2020/12/11 05:15:17;;;;;;;15.75;6.32;;;3.30;93.80;;;;;;4992860;28;20045;-80
2020/12/11 05:17:43;;;;;;;11.15;3.83;;;3.20;93.80;;;;;;4992705;28;20454;-80
2020/12/11 05:20:11;;;;;;;12.32;4.95;;;3.20;93.80;;;;;;4974809;28;20021;-79
2020/12/11 05:22:39;;;;;;;18.90;6.50;;;3.20;93.80;;;;;;4975171;28;20023;-80
2020/12/11 05:25:15;;;;;;;16.75;5.53;;;3.20;93.80;;;;;;4975098;28;20501;-78
2020/12/11 05:27:47;;;;;;;17.13;5.57;;;3.20;93.80;;;;;;4992634;28;20538;-78
2020/12/11 05:30:13;;;;;;;;;;;3.30;93.80;;;;;;4991093;28;20061;-80
2020/12/11 05:32:43;;;;;;;14.98;5.32;;;3.20;93.80;;;;;;4991228;28;20004;-80
2020/12/11 05:35:18;;;;;;;19.08;5.72;;;3.20;93.80;;;;;;4992316;28;20470;-78
2020/12/11 05:37:55;;;;;;;9.48;3.85;;;3.20;93.70;;;;;;4992405;28;20069;-79
2020/12/11 05:40:33;;;;;;;11.77;4.20;;;3.30;93.70;;;;;;4991703;28;20026;-79
2020/12/11 05:43:06;;;;;;;15.23;5.38;;;3.30;94.00;;;;;;4974899;28;20137;-79
2020/12/11 05:45:34;;;;;;;17.48;4.78;;;3.40;93.70;;;;;;4974198;28;20034;-79
2020/12/11 05:48:05;;;;;;;17.15;4.70;;;3.50;93.60;;;;;;4974762;28;20484;-79
2020/12/11 05:50:31;;;;;;;15.50;5.83;;;3.50;93.60;;;;;;4991767;28;20093;-79
2020/12/11 05:52:57;;;;;;;10.45;4.40;;;3.60;93.50;;;;;;4991874;28;20844;-80
2020/12/11 05:55:23;;;;;;;18.85;5.72;;;3.60;93.50;;;;;;4990300;28;20113;-79
2020/12/11 05:57:53;;;;;;;13.13;4.15;;;3.70;93.50;;;;;;4992518;28;20035;-79
2020/12/11 06:00:20;;;;;;;16.48;5.95;;;3.70;93.40;;;;;;4991606;28;20023;-79
2020/12/11 06:02:50;;;;;;;13.38;5.00;;;3.70;93.40;;;;;;4974596;28;20018;-79
2020/12/11 06:05:17;;;;;;;12.05;4.53;;;3.80;93.30;;;;;;4974037;28;20034;-77
2020/12/11 06:07:44;;;;;;;12.32;4.82;;;3.80;93.30;;;;;;4992046;28;20110;-78
2020/12/11 06:10:13;;;;;;;10.88;4.75;;;3.80;93.30;;;;;;4992058;28;20053;-79
2020/12/11 06:12:39;;;;;;;15.02;4.80;;;3.80;93.30;;;;;;4992082;28;20079;-79
2020/12/11 06:15:11;;;;;;;10.52;5.00;;;3.80;93.20;;;;;;4991999;28;20167;-79
2020/12/11 06:17:42;;;;;;;13.88;4.20;;;3.90;93.30;;;;;;4991400;28;20018;-79
2020/12/11 06:20:10;;;;;;;11.32;3.72;;;3.90;93.20;;;;;;4992183;28;20497;-79
2020/12/11 06:22:36;;;;;;;12.57;4.78;;;3.90;93.20;;;;;;4991385;28;20034;-79
2020/12/11 06:25:24;;;;;;;15.98;5.57;;;3.90;93.20;;;;;;4974394;28;20382;-80
2020/12/11 06:27:50;;;;;;;13.18;3.97;;;3.90;93.10;;;;;;4992066;28;20023;-79
2020/12/11 06:30:30;;;;;;;12.48;5.07;;;3.90;93.20;;;;;;4991017;28;20030;-79
2020/12/11 06:32:57;;;;;;;11.90;4.70;;;4.00;93.10;;;;;;4974437;28;20477;-80
2020/12/11 06:35:23;;;;;;;12.77;4.93;;;4.00;93.10;;;;;;4991216;28;20144;-79
2020/12/11 06:37:49;;;;;;;10.20;3.85;;;4.00;93.10;;;;;;4974050;28;20034;-78
2020/12/11 06:40:15;;;;;;;12.07;4.60;;;4.00;93.10;;;;;;4973789;28;20025;-78
2020/12/11 06:42:42;;;;;;;11.70;3.65;;;4.00;93.10;;;;;;4991712;28;20026;-79
2020/12/11 06:45:22;;;;;;;12.95;4.43;;;4.10;93.10;;;;;;4992345;28;20109;-79
2020/12/11 06:47:50;;;;;;;16.02;4.63;;;4.10;93.10;;;;;;4995853;28;20462;-79
2020/12/11 06:50:17;;;;;;;18.00;6.28;;;4.10;93.10;;;;;;4977529;28;20030;-80
2020/12/11 06:52:43;;;;;;;18.88;5.88;;;4.10;93.10;;;;;;4978026;28;20026;-79
2020/12/11 06:55:09;;;;;;;14.20;4.55;;;4.10;93.00;;;;;;4977887;28;20447;-80
2020/12/11 06:57:37;;;;;;;15.25;5.82;;;4.10;93.00;;;;;;4994724;28;20022;-79
2020/12/11 07:00:32;;;;;;;10.68;4.13;;;4.10;93.00;;;;;;4977728;28;20480;-80
2020/12/11 07:03:14;;;;;;;11.27;4.07;;;4.20;93.00;;;;;;4977572;28;20485;-79
2020/12/11 07:05:40;;;;;;;13.30;4.70;;;4.20;93.00;;;;;;4993341;28;20320;-79
2020/12/11 07:08:14;;;;;;;13.90;4.20;;;4.20;93.10;;;;;;4993983;28;20447;-80
2020/12/11 07:10:40;;;;;;;13.90;4.38;;;4.20;93.30;;;;;;4994518;28;20050;-79
2020/12/11 07:13:10;;;;;;;12.57;4.35;;;4.20;93.00;;;;;;4977572;28;20389;-79
2020/12/11 07:15:37;;;;;;;11.98;4.07;;;4.20;93.00;;;;;;4994452;28;20458;-78
2020/12/11 07:18:03;;;;;;;12.18;5.13;;;4.20;93.00;;;;;;4995007;28;20022;-80
2020/12/11 07:20:29;;;;;;;13.02;5.03;;;4.20;93.00;;;;;;4994446;28;20031;-80
2020/12/11 07:22:59;;;;;;;12.25;4.78;;;4.20;93.00;;;;;;4993263;28;20069;-80
2020/12/11 07:25:26;;;;;;;12.35;4.28;;;4.20;93.00;;;;;;4976650;28;20591;-78
2020/12/11 07:28:00;;;;;;;14.63;4.35;;;4.20;93.00;;;;;;4977464;28;20049;-81
2020/12/11 07:30:26;;;;;;;11.98;5.00;;;4.30;93.00;;;;;;4994026;28;20026;-79
2020/12/11 07:32:55;;;;;;;11.88;4.07;;;4.30;93.00;;;;;;4977161;28;20068;-79
2020/12/11 07:35:23;;;;;;;8.23;3.85;;;4.30;93.00;;;;;;4976571;28;20458;-80
2020/12/11 07:37:53;;;;;;;14.88;5.35;;;4.30;92.90;;;;;;4977060;28;20022;-80
2020/12/11 07:40:20;;;;;;;11.63;4.30;;;4.30;92.90;;;;;;4977175;28;20026;-80
2020/12/11 07:42:47;;;;;;;13.05;4.47;;;4.30;92.90;;;;;;4976660;28;20030;-79
2020/12/11 07:45:31;;;;;;;11.20;4.70;;;4.40;92.90;;;;;;4994412;28;20054;-79
2020/12/11 07:47:57;;;;;;;14.00;3.72;;;4.40;92.90;;;;;;4994608;28;20180;-78
2020/12/11 07:50:24;;;;;;;13.98;5.20;;;4.40;92.90;;;;;;4994143;28;20049;-80
2020/12/11 07:52:52;;;;;;;11.02;4.05;;;4.40;92.90;;;;;;4976851;28;20026;-80
2020/12/11 07:55:19;;;;;;;13.07;4.35;;;4.40;92.90;;;;;;4993180;28;20448;-79
2020/12/11 07:57:55;;;;;;;16.63;4.38;;;4.40;92.80;;;;;;4976196;28;20117;-80
2020/12/11 08:00:21;;;;;;;11.90;4.38;;;4.50;92.80;;;;;;4976432;28;20458;-76
2020/12/11 08:03:05;;;;;;;13.45;4.72;;;4.40;92.80;;;;;;4976714;28;20022;-79
2020/12/11 08:05:30;;;;;;;14.20;5.45;;;4.50;92.80;;;;;;4993930;28;20040;-79
2020/12/11 08:07:56;;;;;;;13.98;5.30;;;4.40;92.80;;;;;;4993427;28;20201;-79
2020/12/11 08:10:32;;;;;;;10.30;4.78;;;4.50;92.80;;;;;;4975857;28;20097;-80
2020/12/11 08:13:08;;;;;;;12.73;4.07;;;4.50;92.80;;;;;;4977066;28;20030;-79
2020/12/11 08:15:35;;;;;;;11.88;3.85;;;4.60;92.80;;;;;;4976027;28;20023;-79
2020/12/11 08:18:08;;;;;;;13.02;4.50;;;4.50;92.70;;;;;;4992674;28;20386;-79
2020/12/11 08:20:55;;;;;;;12.45;4.32;;;4.60;92.70;;;;;;4976009;28;20018;-79
2020/12/11 08:23:39;;;;;;;13.00;4.40;;;4.60;92.70;;;;;;4992664;28;20041;-79
2020/12/11 08:26:19;;;;;;;12.57;4.78;;;4.60;92.70;;;;;;4976723;28;20073;-79
2020/12/11 08:28:48;;;;;;;14.65;4.63;;;4.70;92.70;;;;;;4993240;28;20419;-78
2020/12/11 08:31:21;;;;;;;13.10;4.00;;;4.70;92.70;;;;;;4994132;28;20026;-79
2020/12/11 08:33:49;;;;;;;11.90;5.10;;;4.70;92.60;;;;;;4975510;28;20025;-79
2020/12/11 08:36:19;;;;;;;11.32;4.35;;;4.60;92.60;;;;;;4976064;28;20096;-79
2020/12/11 08:39:20;;;;;;;9.00;3.97;;;4.70;92.60;;;;;;4992886;28;20030;-79
2020/12/11 08:42:10;;;;;;;10.88;4.25;;;4.70;92.60;;;;;;4975657;28;20418;-78
2020/12/11 08:49:50;;;;;;;10.80;4.95;;;4.70;92.60;;;;;;4993271;28;20394;-79
2020/12/11 08:52:16;;;;;;;10.65;4.07;;;4.80;92.50;;;;;;4975957;28;20058;-80
2020/12/11 08:54:41;;;;;;;13.30;5.53;;;4.70;92.50;;;;;;4993033;28;20022;-79
2020/12/11 08:57:07;;;;;;;14.23;5.68;;;4.70;92.50;;;;;;4993336;28;20030;-80
2020/12/11 08:59:33;;;;;;;16.38;5.53;;;4.80;92.80;;;;;;4974883;28;20028;-79
2020/12/11 09:02:02;;;;;;;15.52;4.53;;;4.80;92.50;;;;;;4993042;28;20130;-79
2020/12/11 09:04:28;;;;;;;10.27;4.95;;;4.80;92.50;;;;;;4992667;28;20025;-77
2020/12/11 09:06:54;;;;;;;12.60;5.13;;;4.80;92.50;;;;;;4993378;28;20369;-80
2020/12/11 09:09:20;;;;;;;17.00;5.03;;;4.90;92.50;;;;;;4992671;28;20050;-80
2020/12/11 09:11:46;;;;;;;15.80;5.47;;;4.90;92.40;;;;;;4974792;28;20263;-80
2020/12/11 09:14:11;;;;;;;10.93;4.35;;;4.90;92.40;;;;;;4992915;28;20027;-80
2020/12/11 09:16:37;;;;;;;11.43;3.95;;;4.90;92.40;;;;;;4974822;28;20113;-80
2020/12/11 09:19:03;;;;;;;12.70;3.92;;;4.90;92.40;;;;;;4992864;28;20073;-80
2020/12/11 09:21:28;;;;;;;13.35;3.85;;;4.90;92.40;;;;;;4990738;28;20195;-79
2020/12/11 09:23:54;;;;;;;10.02;4.40;;;4.90;92.30;;;;;;4993735;28;20470;-80
2020/12/11 09:26:20;;;;;;;14.10;5.65;;;4.90;92.40;;;;;;4992799;28;20190;-80
2020/12/11 09:28:50;;;;;;;16.58;5.60;;;4.90;92.50;;;;;;4991936;28;20446;-79
2020/12/11 09:31:21;;;;;;;13.05;4.40;;;4.90;92.50;;;;;;4992915;28;20062;-80
2020/12/11 09:33:47;;;;;;;10.15;3.53;;;4.90;92.50;;;;;;4992168;28;20022;-80
2020/12/11 09:36:12;;;;;;;10.38;3.88;;;4.90;92.50;;;;;;4974973;28;20490;-80
2020/12/11 09:38:38;;;;;;;9.77;3.70;;;4.90;92.50;;;;;;4992285;28;20018;-80
2020/12/11 09:41:04;;;;;;;13.40;4.97;;;4.90;92.50;;;;;;4992697;28;20022;-80
2020/12/11 09:48:46;;;;;;;15.15;4.60;;;4.90;92.50;;;;;;4992058;28;20466;-79
2020/12/11 09:56:25;;;;;;;10.80;4.25;;;5.00;92.50;;;;;;4993043;28;20030;-79
2020/12/11 09:58:56;;;;;;;13.38;4.28;;;5.00;92.50;;;;;;4993968;28;20037;-79
2020/12/11 10:01:27;;;;;;;17.55;4.88;;;5.00;92.50;;;;;;4976503;28;20105;-78
2020/12/11 10:03:54;;;;;;;10.98;3.75;;;5.10;92.40;;;;;;4975300;28;20038;-80
2020/12/11 10:06:26;;;;;;;11.68;4.15;;;5.10;92.40;;;;;;4993953;28;20096;-80
2020/12/11 10:08:52;;;;;;;10.52;5.18;;;5.10;92.40;;;;;;4976980;28;20108;-79
2020/12/11 10:11:20;;;;;;;9.73;3.92;;;5.10;92.40;;;;;;4976159;28;20022;-79
2020/12/11 10:13:48;;;;;;;13.60;4.20;;;5.10;92.40;;;;;;4974583;28;20023;-79
2020/12/11 10:16:17;;;;;;;12.40;4.28;;;5.10;92.30;;;;;;4991334;28;20482;-79
2020/12/11 10:18:44;;;;;;;11.90;3.97;;;5.20;92.40;;;;;;4974151;28;20019;-79
2020/12/11 10:21:13;;;;;;;11.60;4.78;;;5.20;92.40;;;;;;4993106;28;20074;-79
2020/12/11 10:23:39;;;;;;;13.85;4.40;;;5.20;92.40;;;;;;4993979;28;20034;-79
2020/12/11 10:26:05;;;;;;;13.57;5.75;;;5.20;92.40;;;;;;4995992;28;20033;-79
2020/12/11 10:28:31;;;;;;;11.95;5.05;;;5.20;92.40;;;;;;4994669;28;20116;-79
2020/12/11 10:30:58;;;;;;;11.25;4.20;;;5.30;92.40;;;;;;4995477;28;20177;-79
2020/12/11 10:33:23;;;;;;;11.20;4.00;;;5.30;92.30;;;;;;4995728;28;20096;-79
2020/12/11 10:35:49;;;;;;;9.27;3.83;;;5.30;92.30;;;;;;4977437;28;20022;-79
2020/12/11 10:38:15;;;;;;;10.70;4.07;;;5.30;92.30;;;;;;4996036;28;20022;-79
2020/12/11 10:40:41;;;;;;;12.93;4.65;;;5.40;92.30;;;;;;4977673;28;20019;-78
2020/12/11 10:43:07;;;;;;;10.43;4.63;;;5.40;92.30;;;;;;4978090;28;20056;-79
2020/12/11 10:45:32;;;;;;;10.45;4.13;;;5.40;92.20;;;;;;4995190;28;20101;-78
2020/12/11 10:47:58;;;;;;;15.07;4.78;;;5.50;92.20;;;;;;4995438;28;20038;-80
2020/12/11 10:50:24;;;;;;;11.65;4.07;;;5.50;92.20;;;;;;4995239;28;20022;-79
2020/12/11 10:52:49;;;;;;;13.00;4.60;;;5.50;92.20;;;;;;4994775;28;20026;-80
2020/12/11 10:55:15;;;;;;;11.90;4.28;;;5.50;92.20;;;;;;4995678;28;20022;-80
2020/12/11 10:57:41;;;;;;;14.75;5.55;;;5.50;92.20;;;;;;4994747;28;20031;-79
2020/12/11 11:00:07;;;;;;;11.68;3.60;;;5.50;92.30;;;;;;4995505;28;20023;-79
2020/12/11 11:02:32;;;;;;;10.45;3.75;;;5.50;92.30;;;;;;4977378;28;20038;-79
2020/12/11 11:04:58;;;;;;;12.90;4.75;;;5.50;92.30;;;;;;4994822;28;20105;-80
2020/12/11 11:07:27;;;;;;;11.82;4.25;;;5.50;92.30;;;;;;4995641;28;20386;-79
2020/12/11 11:12:53;;;;;;;12.95;4.07;;;5.50;92.40;;;;;;4994537;28;20045;-79
2020/12/11 11:26:24;;;;;;;14.02;4.82;;;5.50;92.50;;;;;;4994908;28;20061;-79
2020/12/11 11:28:14;;;;;;;12.55;4.20;;;5.50;92.50;;;;;;4977537;28;20462;-79
2020/12/11 11:30:40;;;;;;;12.40;5.35;;;5.50;92.50;;;;;;4976291;28;20022;-78
2020/12/11 11:33:06;;;;;;;14.20;5.20;;;5.50;92.50;;;;;;4994470;28;20121;-78
2020/12/11 11:35:31;;;;;;;12.48;4.10;;;5.50;92.50;;;;;;4993406;28;20026;-77
2020/12/11 11:37:59;;;;;;;13.57;4.68;;;5.50;92.50;;;;;;4993579;28;20034;-77
2020/12/11 11:40:24;;;;;;;14.20;5.35;;;5.50;92.50;;;;;;4993241;28;20327;-78
2020/12/11 11:42:53;;;;;;;12.13;4.28;;;5.50;92.50;;;;;;4993821;28;20461;-78
2020/12/11 11:45:24;;;;;;;13.30;4.63;;;5.50;92.60;;;;;;4977035;28;20117;-77
2020/12/11 11:47:54;;;;;;;11.15;4.22;;;5.50;92.60;;;;;;4976163;28;20366;-78
2020/12/11 11:50:36;;;;;;;10.52;4.65;;;5.50;92.60;;;;;;4976554;28;20023;-77
2020/12/11 11:53:04;;;;;;;10.05;4.80;;;5.40;92.60;;;;;;4976272;28;20049;-79
2020/12/11 11:55:30;;;;;;;13.57;4.85;;;5.40;92.60;;;;;;4976797;28;20022;-77
2020/12/11 11:57:55;;;;;;;11.52;4.88;;;5.40;92.70;;;;;;4975987;28;20022;-78
2020/12/11 12:00:21;;;;;;;14.18;5.07;;;5.40;92.70;;;;;;4992982;28;20026;-78
2020/12/11 12:02:47;;;;;;;18.63;5.65;;;5.40;92.70;;;;;;4993617;28;20170;-79
2020/12/11 12:05:13;;;;;;;15.32;4.88;;;5.40;92.70;;;;;;4993983;28;20036;-79
2020/12/11 12:07:39;;;;;;;12.50;4.82;;;5.40;92.70;;;;;;4993745;28;20105;-77
2020/12/11 12:10:08;;;;;;;13.32;4.97;;;5.40;92.70;;;;;;4994003;28;20490;-78
2020/12/11 12:12:37;;;;;;;13.48;5.63;;;5.40;92.80;;;;;;4993752;28;20030;-80
2020/12/11 12:15:06;;;;;;;9.45;3.75;;;5.40;92.80;;;;;;4993273;28;20050;-79
2020/12/11 12:17:38;;;;;;;11.75;5.03;;;5.40;92.80;;;;;;4993894;28;20068;-78
2020/12/11 12:20:09;;;;;;;10.65;4.28;;;5.40;92.80;;;;;;4975880;28;20027;-79
2020/12/11 12:30:49;;;;;;;9.93;4.18;;;5.50;92.80;;;;;;4992835;28;20040;-79
2020/12/11 12:34:08;;;;;;;9.55;3.70;;;5.50;92.80;;;;;;4993526;28;20022;-79
2020/12/11 12:44:17;;;;;;;10.23;4.78;;;5.50;92.90;;;;;;4992974;28;20044;-81
2020/12/11 12:46:46;;;;;;;10.70;4.28;;;5.50;92.90;;;;;;4992576;28;20105;-82
2020/12/11 12:49:12;;;;;;;13.07;5.22;;;5.50;92.90;;;;;;4972472;28;20023;-78
2020/12/11 12:51:38;;;;;;;14.98;5.38;;;5.50;92.80;;;;;;4991380;28;20036;-79
2020/12/11 12:54:04;;;;;;;13.95;4.97;;;5.60;92.90;;;;;;4992335;28;20030;-80
2020/12/11 12:56:54;;;;;;;11.32;4.80;;;5.60;92.90;;;;;;4991939;28;20068;-80
2020/12/11 13:02:33;;;;;;;11.73;4.47;;;5.60;92.80;;;;;;4979603;28;20090;-78
2020/12/11 13:07:24;;;;;;;13.30;4.97;;;5.70;92.80;;;;;;4992935;28;20034;-79
2020/12/11 13:09:50;;;;;;;14.63;4.50;;;5.70;92.80;;;;;;4991805;28;20058;-80
2020/12/11 13:12:15;;;;;;;14.45;3.58;;;5.70;92.80;;;;;;4993078;28;20375;-79
2020/12/11 13:14:41;;;;;;;13.50;3.67;;;5.70;92.80;;;;;;4975213;28;20022;-79
2020/12/11 13:17:06;;;;;;;15.10;5.25;;;5.70;92.80;;;;;;4974430;28;20077;-79
2020/12/11 13:19:34;;;;;;;13.43;4.43;;;5.70;92.80;;;;;;4975044;28;20023;-80
2020/12/11 13:27:19;;;;;;;11.90;3.83;;;5.80;92.90;;;;;;4992492;28;20135;-79
2020/12/11 13:29:44;;;;;;;10.20;3.90;;;5.80;92.90;;;;;;4991873;28;20100;-77
2020/12/11 13:32:10;;;;;;;9.73;3.90;;;5.80;92.90;;;;;;4992601;28;20090;-79
2020/12/11 13:34:36;;;;;;;10.75;3.70;;;5.80;92.90;;;;;;4992092;28;20601;-78
2020/12/11 13:37:01;;;;;;;11.65;3.92;;;5.80;92.80;;;;;;4974159;28;20105;-79
2020/12/11 13:39:27;;;;;;;9.63;4.30;;;5.80;92.90;;;;;;4990838;28;20046;-79
2020/12/11 13:41:53;;;;;;;11.27;4.25;;;5.80;92.90;;;;;;4991664;28;20081;-80
2020/12/11 13:44:18;;;;;;;9.05;3.63;;;5.80;92.90;;;;;;4990920;28;20129;-80
2020/12/11 13:46:44;;;;;;;13.70;4.25;;;5.80;92.90;;;;;;4974814;28;20068;-79
2020/12/11 13:49:10;;;;;;;12.50;4.93;;;5.80;92.90;;;;;;4990361;28;20030;-80
2020/12/11 13:51:36;;;;;;;8.40;3.17;;;5.80;92.80;;;;;;4992608;28;20022;-81
2020/12/11 13:54:02;;;;;;;12.98;4.32;;;5.80;92.90;;;;;;4990613;28;20026;-80